createdAt,value
2022-11-29T00:02:20.422Z,5.70
2022-11-29T00:06:30.952Z,5.70
2022-11-29T00:10:39.048Z,5.70
2022-11-29T00:14:47.475Z,5.80
2022-11-29T00:18:52.530Z,5.70
2022-11-29T00:22:57.710Z,5.70
2022-11-29T00:27:03.033Z,5.70
2022-11-29T00:31:22.083Z,5.70
2022-11-29T00:35:26.952Z,5.70
2022-11-29T00:39:31.826Z,5.60
2022-11-29T00:43:36.859Z,5.60
2022-11-29T00:47:41.742Z,5.60
2022-11-29T00:51:46.975Z,5.70
2022-11-29T00:55:53.199Z,5.70
2022-11-29T00:59:58.138Z,5.70
2022-11-29T01:04:03.451Z,5.70
2022-11-29T01:08:08.784Z,5.70
2022-11-29T01:12:13.730Z,5.70
2022-11-29T01:16:18.798Z,5.70
2022-11-29T01:20:23.976Z,5.60
2022-11-29T01:24:30.871Z,5.60
2022-11-29T01:28:37.687Z,5.60
2022-11-29T01:32:42.550Z,5.60
2022-11-29T01:36:47.474Z,5.60
2022-11-29T01:41:06.882Z,5.60
2022-11-29T01:45:23.994Z,5.70
2022-11-29T01:49:42.980Z,5.60
2022-11-29T01:53:47.915Z,5.60
2022-11-29T01:57:53.052Z,5.60
2022-11-29T02:02:06.430Z,5.60
2022-11-29T02:06:11.451Z,5.60
2022-11-29T02:10:17.087Z,5.70
2022-11-29T02:14:40.233Z,5.70
2022-11-29T02:18:57.347Z,5.60
2022-11-29T02:23:43.765Z,5.60
2022-11-29T02:28:16.067Z,5.60
2022-11-29T02:33:09.281Z,5.60
2022-11-29T02:37:45.624Z,5.60
2022-11-29T02:42:25.530Z,5.60
2022-11-29T02:46:50.322Z,5.60
2022-11-29T02:51:00.813Z,5.60
2022-11-29T02:55:09.886Z,5.60
2022-11-29T02:59:45.056Z,5.60
2022-11-29T03:04:29.030Z,5.60
2022-11-29T03:09:26.253Z,5.60
2022-11-29T03:14:01.761Z,5.60
2022-11-29T03:18:56.032Z,5.50
2022-11-29T03:23:20.091Z,5.50
2022-11-29T03:27:40.510Z,5.50
2022-11-29T03:32:20.867Z,5.50
2022-11-29T03:36:39.934Z,5.50
2022-11-29T03:41:10.331Z,5.50
2022-11-29T03:45:25.973Z,5.50
2022-11-29T03:49:59.363Z,5.50
2022-11-29T03:54:35.174Z,5.50
2022-11-29T03:59:02.957Z,5.50
2022-11-29T04:03:45.534Z,5.50
2022-11-29T04:08:01.037Z,5.50
2022-11-29T04:12:39.014Z,5.50
2022-11-29T04:17:18.100Z,5.50
2022-11-29T04:21:33.911Z,5.40
2022-11-29T04:26:21.917Z,5.40
2022-11-29T04:30:46.695Z,5.40
2022-11-29T04:35:00.311Z,5.40
2022-11-29T04:39:42.686Z,5.40
2022-11-29T04:44:23.888Z,5.40
2022-11-29T04:48:56.158Z,5.40
2022-11-29T04:53:25.320Z,5.40
2022-11-29T04:57:51.863Z,5.40
2022-11-29T05:02:20.162Z,5.40
2022-11-29T05:06:37.394Z,5.40
2022-11-29T05:10:53.048Z,5.40
2022-11-29T05:15:22.501Z,5.40
2022-11-29T05:19:57.211Z,5.40
2022-11-29T05:24:17.004Z,5.40
2022-11-29T05:28:48.214Z,5.40
2022-11-29T05:33:29.257Z,5.40
2022-11-29T05:37:48.983Z,5.40
2022-11-29T05:42:31.030Z,5.40
2022-11-29T05:46:55.867Z,5.40
2022-11-29T05:51:31.085Z,5.40
2022-11-29T05:56:30.028Z,5.40
2022-11-29T06:00:50.082Z,5.40
2022-11-29T06:05:09.201Z,5.40
2022-11-29T06:09:33.965Z,5.40
2022-11-29T06:14:13.988Z,5.40
2022-11-29T06:19:05.292Z,5.40
2022-11-29T06:23:37.795Z,5.40
2022-11-29T06:28:17.795Z,5.40
2022-11-29T06:32:56.792Z,5.40
2022-11-29T06:37:14.543Z,5.50
2022-11-29T06:41:23.349Z,5.50
2022-11-29T06:45:28.805Z,5.40
2022-11-29T06:49:48.775Z,5.40
2022-11-29T06:54:20.761Z,5.50
2022-11-29T06:58:46.193Z,5.40
2022-11-29T07:03:12.337Z,5.40
2022-11-29T07:07:23.281Z,5.40
2022-11-29T07:11:28.897Z,5.50
2022-11-29T07:15:35.071Z,5.50
2022-11-29T07:20:29.377Z,5.50
2022-11-29T07:25:09.268Z,5.50
2022-11-29T07:29:51.152Z,5.50
2022-11-29T07:34:14.617Z,5.50
2022-11-29T07:38:49.487Z,5.50
2022-11-29T07:43:31.132Z,5.50
2022-11-29T07:47:36.347Z,5.50
2022-11-29T07:51:41.374Z,5.50
2022-11-29T07:55:47.513Z,5.50
2022-11-29T07:59:52.334Z,5.50
2022-11-29T08:03:57.325Z,5.50
2022-11-29T08:08:02.386Z,5.50
2022-11-29T08:12:07.525Z,5.50
2022-11-29T08:16:17.929Z,5.50
2022-11-29T08:20:23.177Z,5.50
2022-11-29T08:24:28.128Z,5.50
2022-11-29T08:28:33.089Z,5.50
2022-11-29T08:32:37.990Z,5.50
2022-11-29T08:36:42.903Z,5.60
2022-11-29T08:40:47.764Z,5.60
2022-11-29T08:44:52.689Z,5.60
2022-11-29T08:48:57.573Z,5.60
2022-11-29T08:53:20.810Z,5.60
2022-11-29T08:57:39.714Z,5.60
2022-11-29T09:01:45.784Z,5.70
2022-11-29T09:05:51.285Z,5.60
2022-11-29T09:09:56.181Z,5.70
2022-11-29T09:14:05.417Z,5.70
2022-11-29T09:18:10.719Z,5.70
2022-11-29T09:22:15.576Z,5.70
2022-11-29T09:26:20.544Z,5.80
2022-11-29T09:30:25.531Z,5.80
2022-11-29T09:34:30.526Z,5.80
2022-11-29T09:38:36.653Z,5.70
2022-11-29T09:43:09.050Z,5.70
2022-11-29T09:47:35.438Z,5.80
2022-11-29T09:51:52.332Z,5.80
2022-11-29T09:56:05.410Z,5.80
2022-11-29T10:00:19.825Z,5.80
2022-11-29T10:04:31.497Z,5.90
2022-11-29T10:09:12.495Z,5.90
2022-11-29T10:13:39.319Z,6.00
2022-11-29T10:18:01.658Z,6.00
2022-11-29T10:23:00.430Z,6.00
2022-11-29T10:27:23.679Z,6.00
2022-11-29T10:31:35.154Z,6.00
2022-11-29T10:35:40.048Z,6.00
2022-11-29T10:40:04.592Z,6.10
2022-11-29T10:44:13.805Z,6.00
2022-11-29T10:48:22.707Z,6.00
2022-11-29T10:52:27.690Z,6.10
2022-11-29T10:56:37.640Z,6.10
2022-11-29T11:01:07.825Z,6.10
2022-11-29T11:05:19.410Z,6.10
2022-11-29T11:09:44.040Z,6.10
2022-11-29T11:14:06.080Z,6.10
2022-11-29T11:18:21.461Z,6.10
2022-11-29T11:22:28.625Z,6.10
2022-11-29T11:26:45.296Z,6.20
2022-11-29T11:30:58.184Z,6.20
2022-11-29T11:35:03.311Z,6.20
2022-11-29T11:39:17.690Z,6.20
2022-11-29T11:43:23.225Z,6.20
2022-11-29T11:47:31.628Z,6.20
2022-11-29T11:51:36.769Z,6.20
2022-11-29T11:55:53.243Z,6.30
2022-11-29T12:00:06.428Z,6.20
2022-11-29T12:04:21.374Z,6.30
2022-11-29T12:08:28.625Z,6.20
2022-11-29T12:12:39.298Z,6.20
2022-11-29T12:16:45.510Z,6.20
2022-11-29T12:20:50.314Z,6.20
2022-11-29T12:25:04.532Z,6.20
2022-11-29T12:29:19.068Z,6.30
2022-11-29T12:33:42.147Z,6.30
2022-11-29T12:37:56.274Z,6.30
2022-11-29T12:42:18.316Z,6.30
2022-11-29T12:46:28.851Z,6.30
2022-11-29T12:50:49.157Z,6.30
2022-11-29T12:55:26.467Z,6.30
2022-11-29T13:00:15.280Z,6.30
2022-11-29T13:05:04.054Z,6.30
2022-11-29T13:09:35.620Z,6.30
2022-11-29T13:13:45.471Z,6.30
2022-11-29T13:18:05.247Z,6.30
2022-11-29T13:22:12.824Z,6.30
2022-11-29T13:26:18.736Z,6.30
2022-11-29T13:30:23.827Z,6.30
2022-11-29T13:34:42.891Z,6.30
2022-11-29T13:39:37.693Z,6.30
2022-11-29T13:44:46.318Z,6.40
2022-11-29T13:48:54.041Z,6.40
2022-11-29T13:53:23.761Z,6.40
2022-11-29T13:57:28.832Z,6.40
2022-11-29T14:01:49.360Z,6.40
2022-11-29T14:06:18.558Z,6.50
2022-11-29T14:10:29.090Z,6.40
2022-11-29T14:14:58.903Z,6.40
2022-11-29T14:19:09.992Z,6.30
2022-11-29T14:23:31.053Z,6.40
2022-11-29T14:27:35.953Z,6.30
2022-11-29T14:31:52.169Z,6.40
2022-11-29T14:36:18.398Z,6.40
2022-11-29T14:40:40.645Z,6.40
2022-11-29T14:45:04.658Z,6.40
2022-11-29T14:49:23.911Z,6.40
2022-11-29T14:53:34.316Z,6.40
2022-11-29T14:57:48.373Z,6.30
2022-11-29T15:01:53.860Z,6.30
2022-11-29T15:06:11.768Z,6.30
2022-11-29T15:10:23.153Z,6.30
2022-11-29T15:15:11.685Z,6.30
2022-11-29T15:19:58.455Z,6.20
2022-11-29T15:24:15.048Z,6.20
2022-11-29T15:28:29.101Z,6.20
2022-11-29T15:32:34.228Z,6.30
2022-11-29T15:36:43.510Z,6.30
2022-11-29T15:40:54.708Z,6.20
2022-11-29T15:44:59.568Z,6.30
2022-11-29T15:49:27.714Z,6.20
2022-11-29T15:53:49.663Z,6.30
2022-11-29T15:57:56.884Z,6.20
2022-11-29T16:02:20.791Z,6.20
2022-11-29T16:06:45.821Z,6.20
2022-11-29T16:10:53.150Z,6.20
2022-11-29T16:15:01.037Z,6.20
2022-11-29T16:19:34.328Z,6.20
2022-11-29T16:23:43.818Z,6.20
2022-11-29T16:27:53.500Z,6.10
2022-11-29T16:31:58.692Z,6.10
2022-11-29T16:36:26.684Z,6.10
2022-11-29T16:40:35.410Z,6.10
2022-11-29T16:44:40.242Z,6.00
2022-11-29T16:48:45.156Z,6.00
2022-11-29T16:52:56.090Z,6.70
2022-11-29T16:57:06.617Z,6.40
2022-11-29T17:01:28.909Z,6.20
2022-11-29T17:05:33.761Z,6.10
2022-11-29T17:09:38.961Z,6.10
2022-11-29T17:13:44.267Z,6.00
2022-11-29T17:17:49.156Z,6.00
2022-11-29T17:21:54.104Z,6.00
2022-11-29T17:26:00.567Z,5.90
2022-11-29T17:30:07.132Z,6.00
2022-11-29T17:34:12.144Z,6.00
2022-11-29T17:38:17.030Z,6.00
2022-11-29T17:42:22.809Z,6.00
2022-11-29T17:46:37.537Z,6.00
2022-11-29T17:50:42.445Z,6.10
2022-11-29T17:54:47.423Z,6.00
2022-11-29T17:58:55.154Z,5.90
2022-11-29T18:03:00.004Z,6.00
2022-11-29T18:07:05.371Z,6.00
2022-11-29T18:11:29.857Z,6.00
2022-11-29T18:15:34.833Z,6.00
2022-11-29T18:19:39.724Z,6.00
2022-11-29T18:23:44.658Z,6.00
2022-11-29T18:27:49.707Z,6.00
2022-11-29T18:31:54.699Z,6.00
2022-11-29T18:36:10.024Z,6.00
2022-11-29T18:40:15.135Z,6.00
2022-11-29T18:44:29.210Z,6.00
2022-11-29T18:48:34.117Z,6.00
2022-11-29T18:52:40.801Z,6.00
2022-11-29T18:56:46.474Z,5.90
2022-11-29T19:00:51.391Z,5.90
2022-11-29T19:04:56.881Z,5.90
2022-11-29T19:09:02.507Z,5.90
2022-11-29T19:13:07.419Z,5.90
2022-11-29T19:17:12.283Z,5.80
2022-11-29T19:21:18.790Z,5.90
2022-11-29T19:25:23.673Z,5.80
2022-11-29T19:29:28.657Z,5.90
2022-11-29T19:33:35.805Z,5.90
2022-11-29T19:37:42.026Z,5.90
2022-11-29T19:41:48.031Z,6.00
2022-11-29T19:45:53.021Z,6.00
2022-11-29T19:50:02.301Z,6.00
2022-11-29T19:54:09.757Z,6.00
2022-11-29T19:58:14.650Z,6.00
2022-11-29T20:02:19.580Z,6.00
2022-11-29T20:06:28.502Z,5.90
2022-11-29T20:10:34.562Z,5.90
2022-11-29T20:14:39.531Z,5.90
2022-11-29T20:18:50.618Z,5.90
2022-11-29T20:22:55.879Z,5.90
2022-11-29T20:27:00.848Z,5.90
2022-11-29T20:31:12.937Z,5.80
2022-11-29T20:35:18.300Z,5.80
2022-11-29T20:39:41.007Z,5.80
2022-11-29T20:43:56.819Z,5.90
2022-11-29T20:48:25.870Z,5.80
2022-11-29T20:52:43.634Z,5.80
2022-11-29T20:56:48.520Z,5.90
2022-11-29T21:00:57.433Z,5.80
2022-11-29T21:05:02.382Z,5.90
2022-11-29T21:09:08.701Z,5.80
2022-11-29T21:13:14.801Z,5.90
2022-11-29T21:17:20.272Z,5.80
2022-11-29T21:21:45.156Z,5.90
2022-11-29T21:26:21.087Z,5.90
2022-11-29T21:30:26.223Z,5.90
2022-11-29T21:34:31.371Z,5.80
2022-11-29T21:38:36.470Z,5.80
2022-11-29T21:42:41.492Z,5.80
2022-11-29T21:46:46.360Z,5.80
2022-11-29T21:50:51.730Z,5.70
2022-11-29T21:54:56.653Z,5.80
2022-11-29T21:59:01.541Z,5.80
2022-11-29T22:03:06.711Z,5.80
2022-11-29T22:07:11.636Z,5.80
2022-11-29T22:11:30.782Z,5.80
2022-11-29T22:15:36.077Z,5.80
2022-11-29T22:19:41.107Z,5.80
2022-11-29T22:23:45.967Z,5.80
2022-11-29T22:27:50.910Z,5.80
2022-11-29T22:31:57.303Z,5.80
2022-11-29T22:36:08.901Z,5.80
2022-11-29T22:40:13.948Z,5.70
2022-11-29T22:44:18.855Z,5.80
2022-11-29T22:52:54.188Z,5.80
2022-11-29T22:56:59.110Z,5.80
2022-11-29T23:01:19.632Z,5.80
2022-11-29T23:05:27.250Z,5.80
2022-11-29T23:09:35.706Z,5.80
2022-11-29T23:13:42.607Z,5.80
2022-11-29T23:17:47.468Z,5.80
2022-11-29T23:21:52.418Z,5.80
2022-11-29T23:25:57.882Z,5.80
2022-11-29T23:30:02.913Z,5.80
2022-11-29T23:34:07.989Z,5.80
2022-11-29T23:38:12.898Z,5.80
2022-11-29T23:42:17.814Z,5.80
2022-11-29T23:46:24.372Z,5.80
2022-11-29T23:50:29.224Z,5.80
2022-11-29T23:54:34.190Z,5.80
2022-11-29T23:58:39.576Z,5.80
